createdAt,value
2023-04-29T00:00:01.033Z,18.00
2023-04-29T00:02:30.471Z,18.00
2023-04-29T00:04:59.829Z,18.00
2023-04-29T00:07:27.677Z,18.00
2023-04-29T00:09:56.105Z,18.00
2023-04-29T00:12:23.226Z,18.00
2023-04-29T00:14:51.105Z,17.90
2023-04-29T00:17:18.835Z,17.90
2023-04-29T00:19:46.622Z,17.80
2023-04-29T00:22:14.774Z,17.80
2023-04-29T00:24:42.569Z,17.70
2023-04-29T00:27:12.184Z,17.70
2023-04-29T00:29:39.715Z,17.70
2023-04-29T00:32:07.894Z,17.70
2023-04-29T00:34:57.794Z,17.70
2023-04-29T00:37:25.790Z,17.70
2023-04-29T00:39:53.801Z,17.80
2023-04-29T00:42:21.665Z,17.80
2023-04-29T00:44:49.587Z,17.80
2023-04-29T00:47:16.996Z,17.80
2023-04-29T00:49:45.300Z,17.80
2023-04-29T00:52:19.200Z,17.80
2023-04-29T00:54:50.220Z,17.80
2023-04-29T00:57:19.750Z,17.80
2023-04-29T00:59:47.841Z,17.80
2023-04-29T01:02:17.658Z,17.80
2023-04-29T01:04:45.718Z,17.80
2023-04-29T01:07:16.725Z,17.80
2023-04-29T01:10:09.160Z,17.70
2023-04-29T01:12:47.312Z,17.70
2023-04-29T01:15:24.738Z,17.70
2023-04-29T01:17:57.080Z,17.70
2023-04-29T01:20:25.965Z,17.70
2023-04-29T01:22:53.939Z,17.70
2023-04-29T01:25:22.189Z,17.70
2023-04-29T01:28:16.723Z,17.60
2023-04-29T01:31:00.425Z,17.60
2023-04-29T01:33:47.021Z,17.60
2023-04-29T01:36:24.346Z,17.60
2023-04-29T01:39:03.286Z,17.50
2023-04-29T01:41:56.057Z,17.60
2023-04-29T01:44:29.524Z,17.60
2023-04-29T01:46:57.662Z,17.60
2023-04-29T01:49:28.258Z,17.60
2023-04-29T01:51:57.284Z,17.60
2023-04-29T01:54:25.374Z,17.60
2023-04-29T01:56:54.375Z,17.60
2023-04-29T01:59:24.185Z,17.60
2023-04-29T02:01:56.656Z,17.50
2023-04-29T02:04:25.726Z,17.50
2023-04-29T02:06:53.140Z,17.50
2023-04-29T02:09:21.350Z,17.50
2023-04-29T02:11:50.853Z,17.60
2023-04-29T02:14:19.288Z,17.60
2023-04-29T02:16:47.341Z,17.50
2023-04-29T02:19:16.973Z,17.60
2023-04-29T02:21:44.213Z,17.50
2023-04-29T02:24:11.765Z,17.50
2023-04-29T02:26:40.685Z,17.60
2023-04-29T02:29:08.716Z,17.60
2023-04-29T02:31:36.463Z,17.50
2023-04-29T02:34:04.921Z,17.60
2023-04-29T02:36:34.344Z,17.50
2023-04-29T02:39:03.621Z,17.40
2023-04-29T02:41:31.030Z,17.40
2023-04-29T02:43:58.544Z,17.40
2023-04-29T02:46:30.390Z,17.40
2023-04-29T02:48:58.330Z,17.40
2023-04-29T02:51:29.263Z,17.40
2023-04-29T02:53:57.331Z,17.50
2023-04-29T02:56:24.952Z,17.50
2023-04-29T02:58:52.772Z,17.50
2023-04-29T03:01:20.302Z,17.50
2023-04-29T03:03:48.884Z,17.50
2023-04-29T03:06:19.591Z,17.50
2023-04-29T03:08:47.398Z,17.50
2023-04-29T03:11:14.865Z,17.50
2023-04-29T03:13:42.849Z,17.50
2023-04-29T03:16:11.143Z,17.40
2023-04-29T03:18:38.957Z,17.40
2023-04-29T03:21:09.955Z,17.40
2023-04-29T03:23:39.187Z,17.40
2023-04-29T03:26:07.288Z,17.40
2023-04-29T03:28:34.596Z,17.40
2023-04-29T03:31:02.466Z,17.40
2023-04-29T03:33:30.748Z,17.40
2023-04-29T03:36:01.776Z,17.40
2023-04-29T03:38:35.086Z,17.40
2023-04-29T03:41:06.285Z,17.40
2023-04-29T03:43:33.953Z,17.40
2023-04-29T03:46:01.807Z,17.40
2023-04-29T03:48:29.501Z,17.40
2023-04-29T03:50:57.717Z,17.40
2023-04-29T03:53:26.444Z,17.40
2023-04-29T03:55:55.053Z,17.40
2023-04-29T03:58:24.097Z,17.40
2023-04-29T04:00:52.644Z,17.40
2023-04-29T04:03:23.998Z,17.40
2023-04-29T04:05:51.747Z,17.40
2023-04-29T04:08:19.335Z,17.40
2023-04-29T04:10:54.887Z,17.40
2023-04-29T04:13:24.871Z,17.40
2023-04-29T04:15:55.368Z,17.40
2023-04-29T04:18:23.664Z,17.40
2023-04-29T04:20:51.559Z,17.40
2023-04-29T04:23:40.855Z,17.40
2023-04-29T04:26:09.720Z,17.40
2023-04-29T04:28:44.651Z,17.40
2023-04-29T04:31:17.096Z,17.40
2023-04-29T04:33:44.460Z,17.40
2023-04-29T04:36:15.744Z,17.40
2023-04-29T04:38:44.496Z,17.40
2023-04-29T04:41:13.185Z,17.40
2023-04-29T04:43:42.580Z,17.40
2023-04-29T04:46:14.720Z,17.40
2023-04-29T04:48:56.250Z,17.40
2023-04-29T04:51:27.278Z,17.40
2023-04-29T04:53:55.422Z,17.30
2023-04-29T04:56:24.709Z,17.40
2023-04-29T04:58:52.826Z,17.30
2023-04-29T05:01:20.708Z,17.30
2023-04-29T05:03:48.649Z,17.40
2023-04-29T05:06:16.306Z,17.30
2023-04-29T05:08:48.300Z,17.30
2023-04-29T05:11:18.657Z,17.30
2023-04-29T05:13:48.965Z,17.30
2023-04-29T05:16:19.682Z,17.30
2023-04-29T05:18:48.149Z,17.30
2023-04-29T05:21:17.653Z,17.30
2023-04-29T05:23:45.617Z,17.30
2023-04-29T05:26:13.609Z,17.30
2023-04-29T05:28:41.586Z,17.30
2023-04-29T05:31:09.900Z,17.30
2023-04-29T05:33:38.235Z,17.30
2023-04-29T05:36:06.940Z,17.30
2023-04-29T05:38:35.062Z,17.30
2023-04-29T05:41:09.069Z,17.30
2023-04-29T05:43:44.576Z,17.40
2023-04-29T05:46:14.109Z,17.40
2023-04-29T05:48:42.623Z,17.50
2023-04-29T05:51:16.312Z,17.50
2023-04-29T05:53:44.604Z,17.50
2023-04-29T05:56:12.431Z,17.50
2023-04-29T05:58:43.556Z,17.50
2023-04-29T06:01:11.278Z,17.50
2023-04-29T06:03:42.538Z,17.50
2023-04-29T06:06:12.603Z,17.60
2023-04-29T06:11:32.172Z,17.60
2023-04-29T06:14:02.141Z,17.60
2023-04-29T06:16:29.963Z,17.60
2023-04-29T06:19:01.256Z,17.60
2023-04-29T06:21:29.261Z,17.70
2023-04-29T06:23:56.813Z,17.70
2023-04-29T06:26:25.072Z,17.70
2023-04-29T06:28:52.874Z,17.80
2023-04-29T06:31:23.226Z,17.80
2023-04-29T06:33:53.879Z,17.80
2023-04-29T06:36:21.783Z,17.80
2023-04-29T06:39:00.958Z,17.80
2023-04-29T06:41:35.112Z,17.90
2023-04-29T06:44:05.163Z,17.90
2023-04-29T06:46:40.578Z,17.90
2023-04-29T06:49:11.523Z,18.00
2023-04-29T06:51:40.304Z,18.00
2023-04-29T06:54:08.565Z,18.00
2023-04-29T06:56:38.158Z,18.10
2023-04-29T06:59:07.172Z,18.10
2023-04-29T07:01:37.066Z,18.10
2023-04-29T07:04:05.439Z,18.10
2023-04-29T07:06:32.837Z,18.10
2023-04-29T07:09:00.458Z,18.20
2023-04-29T07:11:28.420Z,18.20
2023-04-29T07:13:56.158Z,18.30
2023-04-29T07:16:25.696Z,18.30
2023-04-29T07:18:53.321Z,18.30
2023-04-29T07:21:21.148Z,18.40
2023-04-29T07:23:49.368Z,18.40
2023-04-29T07:26:18.315Z,18.50
2023-04-29T07:28:46.630Z,18.50
2023-04-29T07:31:14.633Z,18.50
2023-04-29T07:33:42.610Z,18.50
2023-04-29T07:36:11.819Z,18.50
2023-04-29T07:38:39.595Z,18.50
2023-04-29T07:41:07.200Z,18.60
2023-04-29T07:43:34.721Z,18.60
2023-04-29T07:46:02.498Z,18.60
2023-04-29T07:48:30.876Z,18.60
2023-04-29T07:51:00.609Z,18.60
2023-04-29T07:53:28.236Z,18.70
2023-04-29T07:55:56.831Z,18.70
2023-04-29T07:58:25.500Z,18.70
2023-04-29T08:00:53.791Z,18.80
2023-04-29T08:03:21.576Z,18.80
2023-04-29T08:05:51.103Z,18.80
2023-04-29T08:08:18.555Z,18.90
2023-04-29T08:10:47.328Z,18.90
2023-04-29T08:13:14.944Z,18.90
2023-04-29T08:15:45.800Z,18.90
2023-04-29T08:18:13.722Z,18.90
2023-04-29T08:20:42.400Z,18.90
2023-04-29T08:23:10.002Z,18.90
2023-04-29T08:25:40.515Z,18.90
2023-04-29T08:28:09.757Z,19.00
2023-04-29T08:30:40.034Z,19.10
2023-04-29T08:33:08.773Z,19.10
2023-04-29T08:35:39.973Z,19.00
2023-04-29T08:38:10.143Z,19.10
2023-04-29T08:40:43.640Z,19.10
2023-04-29T08:43:12.477Z,19.20
2023-04-29T08:45:40.965Z,19.30
2023-04-29T08:48:09.488Z,19.40
2023-04-29T08:50:41.566Z,19.40
2023-04-29T08:53:10.726Z,19.40
2023-04-29T08:55:44.275Z,19.60
2023-04-29T08:58:14.257Z,19.60
2023-04-29T09:00:44.960Z,19.70
2023-04-29T09:03:16.795Z,19.60
2023-04-29T09:05:49.156Z,19.70
2023-04-29T09:08:17.690Z,19.70
2023-04-29T09:10:45.473Z,19.80
2023-04-29T09:13:31.693Z,19.80
2023-04-29T09:15:59.711Z,19.80
2023-04-29T09:18:51.358Z,19.80
2023-04-29T09:21:27.662Z,19.80
2023-04-29T09:23:57.928Z,19.90
2023-04-29T09:26:26.361Z,19.90
2023-04-29T09:29:09.478Z,20.00
2023-04-29T09:31:39.773Z,20.10
2023-04-29T09:34:07.504Z,20.20
2023-04-29T09:36:50.588Z,20.30
2023-04-29T09:39:26.434Z,20.30
2023-04-29T09:41:59.416Z,20.40
2023-04-29T09:44:34.326Z,20.20
2023-04-29T09:47:09.330Z,20.00
2023-04-29T09:49:42.313Z,20.10
2023-04-29T09:52:12.597Z,20.20
2023-04-29T09:54:49.443Z,20.30
2023-04-29T09:57:19.568Z,20.40
2023-04-29T09:59:47.487Z,20.50
2023-04-29T10:02:18.055Z,20.60
2023-04-29T10:04:48.507Z,20.60
2023-04-29T10:07:17.906Z,20.70
2023-04-29T10:09:52.836Z,20.70
2023-04-29T10:12:21.560Z,20.80
2023-04-29T10:14:53.183Z,20.80
2023-04-29T10:17:29.006Z,20.90
2023-04-29T10:20:08.940Z,21.00
2023-04-29T10:23:10.580Z,21.10
2023-04-29T10:25:38.288Z,21.20
2023-04-29T10:28:20.673Z,21.30
2023-04-29T10:30:54.604Z,21.60
2023-04-29T10:33:23.580Z,21.60
2023-04-29T10:35:54.055Z,21.70
2023-04-29T10:38:34.769Z,21.70
2023-04-29T10:41:05.017Z,21.80
2023-04-29T10:43:34.995Z,21.80
2023-04-29T10:46:20.969Z,21.90
2023-04-29T10:48:50.291Z,21.90
2023-04-29T10:51:33.757Z,22.00
2023-04-29T10:54:21.028Z,22.00
2023-04-29T10:56:51.506Z,22.00
2023-04-29T10:59:25.517Z,22.00
2023-04-29T11:01:54.509Z,21.90
2023-04-29T11:04:23.704Z,21.90
2023-04-29T11:06:57.005Z,21.90
2023-04-29T11:09:27.589Z,21.80
2023-04-29T11:12:04.281Z,21.70
2023-04-29T11:14:37.872Z,21.70
2023-04-29T11:17:22.847Z,21.70
2023-04-29T11:19:57.380Z,21.60
2023-04-29T11:22:27.658Z,21.60
2023-04-29T11:25:00.967Z,21.40
2023-04-29T11:27:34.427Z,21.40
2023-04-29T11:30:05.559Z,21.30
2023-04-29T11:32:35.590Z,21.40
2023-04-29T11:35:17.834Z,21.40
2023-04-29T11:37:47.606Z,21.40
2023-04-29T11:40:15.723Z,21.50
2023-04-29T11:42:48.470Z,21.60
2023-04-29T11:45:18.640Z,21.60
2023-04-29T11:47:47.675Z,21.70
2023-04-29T11:50:19.565Z,21.60
2023-04-29T11:52:49.173Z,21.60
2023-04-29T11:55:17.088Z,21.60
2023-04-29T11:57:44.774Z,21.60
2023-04-29T12:00:14.291Z,21.70
2023-04-29T12:02:45.282Z,21.80
2023-04-29T12:05:14.260Z,21.80
2023-04-29T12:07:42.197Z,22.00
2023-04-29T12:10:12.153Z,21.80
2023-04-29T12:12:45.278Z,21.70
2023-04-29T12:15:14.119Z,21.60
2023-04-29T12:17:42.849Z,21.70
2023-04-29T12:20:12.896Z,21.80
2023-04-29T12:22:44.210Z,21.90
2023-04-29T12:25:15.381Z,22.10
2023-04-29T12:27:43.432Z,22.20
2023-04-29T12:30:12.687Z,22.30
2023-04-29T12:32:41.276Z,22.40
2023-04-29T12:35:13.124Z,22.50
2023-04-29T12:37:41.543Z,22.60
2023-04-29T12:40:16.100Z,22.70
2023-04-29T12:42:47.065Z,22.70
2023-04-29T12:45:34.510Z,22.80
2023-04-29T12:48:08.965Z,23.00
2023-04-29T12:50:37.747Z,23.00
2023-04-29T12:53:06.994Z,23.10
2023-04-29T12:55:36.267Z,23.10
2023-04-29T12:58:05.820Z,23.10
2023-04-29T13:00:35.214Z,23.10
2023-04-29T13:03:03.553Z,23.10
2023-04-29T13:05:31.202Z,23.10
2023-04-29T13:07:59.254Z,23.20
2023-04-29T13:10:28.678Z,23.10
2023-04-29T13:12:57.197Z,22.90
2023-04-29T13:15:25.453Z,22.90
2023-04-29T13:17:55.886Z,22.90
2023-04-29T13:20:23.640Z,23.10
2023-04-29T13:22:51.470Z,22.90
2023-04-29T13:25:19.772Z,22.90
2023-04-29T13:27:47.575Z,23.00
2023-04-29T13:30:15.116Z,23.10
2023-04-29T13:32:51.379Z,23.10
2023-04-29T13:35:13.403Z,23.30
2023-04-29T13:37:41.379Z,23.40
2023-04-29T13:40:18.136Z,23.20
2023-04-29T13:42:47.226Z,23.20
2023-04-29T13:45:10.796Z,23.20
2023-04-29T13:47:57.647Z,23.30
2023-04-29T14:00:45.273Z,23.90
2023-04-29T14:05:18.651Z,23.90
2023-04-29T14:07:46.793Z,24.00
2023-04-29T14:10:14.645Z,23.90
2023-04-29T14:12:42.526Z,23.90
2023-04-29T14:15:10.736Z,24.00
2023-04-29T14:17:40.467Z,24.00
2023-04-29T14:20:09.277Z,24.10
2023-04-29T14:22:37.072Z,24.10
2023-04-29T14:25:06.080Z,24.10
2023-04-29T14:27:35.041Z,24.20
2023-04-29T14:30:03.148Z,24.30
2023-04-29T14:32:31.026Z,24.40
2023-04-29T14:35:01.282Z,24.60
2023-04-29T14:37:29.705Z,24.70
2023-04-29T14:39:57.798Z,24.70
2023-04-29T14:42:25.835Z,24.80
2023-04-29T14:44:54.896Z,24.80
2023-04-29T14:47:22.776Z,24.80
2023-04-29T14:49:50.668Z,24.80
2023-04-29T14:52:18.466Z,24.90
2023-04-29T14:54:46.289Z,24.80
2023-04-29T14:57:15.497Z,24.70
2023-04-29T14:59:43.358Z,24.60
2023-04-29T15:02:20.626Z,24.50
2023-04-29T15:04:49.312Z,24.40
2023-04-29T15:07:18.155Z,24.20
2023-04-29T15:09:46.401Z,24.10
2023-04-29T15:12:19.216Z,24.00
2023-04-29T15:14:47.776Z,23.90
2023-04-29T15:17:15.872Z,23.80
2023-04-29T15:19:44.422Z,23.70
2023-04-29T15:22:13.249Z,23.60
2023-04-29T15:24:41.114Z,23.50
2023-04-29T15:27:09.595Z,23.50
2023-04-29T15:29:38.101Z,23.40
2023-04-29T15:32:06.887Z,23.30
2023-04-29T15:34:34.774Z,23.30
2023-04-29T15:37:03.011Z,23.20
2023-04-29T15:39:34.060Z,23.10
2023-04-29T15:42:01.822Z,23.00
2023-04-29T15:44:30.700Z,23.00
2023-04-29T15:46:58.530Z,23.00
2023-04-29T15:49:25.949Z,22.90
2023-04-29T15:51:54.150Z,22.90
2023-04-29T15:54:21.884Z,22.80
2023-04-29T15:56:50.449Z,22.80
2023-04-29T15:59:17.853Z,22.80
2023-04-29T16:01:46.086Z,22.80
2023-04-29T16:04:13.944Z,22.80
2023-04-29T16:06:42.030Z,22.80
2023-04-29T16:09:09.831Z,22.80
2023-04-29T16:11:37.354Z,22.80
2023-04-29T16:14:05.866Z,22.80
2023-04-29T16:16:33.474Z,22.80
2023-04-29T16:19:04.633Z,22.70
2023-04-29T16:21:33.569Z,22.70
2023-04-29T16:24:01.236Z,22.70
2023-04-29T16:26:29.411Z,22.70
2023-04-29T16:28:57.044Z,22.60
2023-04-29T16:31:24.920Z,22.60
2023-04-29T16:33:52.663Z,22.50
2023-04-29T16:36:20.591Z,22.50
2023-04-29T16:38:48.723Z,22.50
2023-04-29T16:41:16.365Z,22.40
2023-04-29T16:43:44.352Z,22.40
2023-04-29T16:46:12.863Z,22.40
2023-04-29T16:48:40.530Z,22.40
2023-04-29T16:51:08.257Z,22.30
2023-04-29T16:53:36.347Z,22.30
2023-04-29T16:56:04.417Z,22.30
2023-04-29T16:58:32.405Z,22.30
2023-04-29T17:01:00.165Z,22.30
2023-04-29T17:03:28.455Z,22.30
2023-04-29T17:05:56.413Z,22.40
2023-04-29T17:08:25.070Z,22.40
2023-04-29T17:10:53.659Z,22.50
2023-04-29T17:13:22.070Z,22.50
2023-04-29T17:15:49.913Z,22.60
2023-04-29T17:18:19.849Z,22.70
2023-04-29T17:20:48.841Z,22.80
2023-04-29T17:23:17.166Z,22.80
2023-04-29T17:25:45.400Z,22.80
2023-04-29T17:28:13.199Z,22.80
2023-04-29T17:30:40.688Z,22.70
2023-04-29T17:33:09.245Z,22.70
2023-04-29T17:35:38.696Z,22.60
2023-04-29T17:38:06.213Z,22.50
2023-04-29T17:40:34.399Z,22.50
2023-04-29T17:43:02.210Z,22.40
2023-04-29T17:45:30.318Z,22.40
2023-04-29T17:47:58.483Z,22.40
2023-04-29T17:50:26.058Z,22.40
2023-04-29T17:52:53.997Z,22.30
2023-04-29T17:55:22.123Z,22.30
2023-04-29T17:57:50.347Z,22.20
2023-04-29T18:00:18.487Z,22.20
2023-04-29T18:02:47.269Z,22.10
2023-04-29T18:05:14.926Z,22.00
2023-04-29T18:07:42.683Z,21.90
2023-04-29T18:10:10.747Z,21.90
2023-04-29T18:12:38.874Z,21.90
2023-04-29T18:15:09.462Z,21.80
2023-04-29T18:17:37.474Z,21.70
2023-04-29T18:20:06.533Z,21.60
2023-04-29T18:22:35.344Z,21.50
2023-04-29T18:25:03.223Z,21.50
2023-04-29T18:27:30.882Z,21.40
2023-04-29T18:29:59.413Z,21.30
2023-04-29T18:32:27.338Z,21.30
2023-04-29T18:34:56.685Z,21.10
2023-04-29T18:37:28.188Z,21.10
2023-04-29T18:39:55.997Z,21.00
2023-04-29T18:42:24.215Z,20.90
2023-04-29T18:44:52.144Z,20.80
2023-04-29T18:47:19.884Z,20.70
2023-04-29T18:49:47.182Z,20.60
2023-04-29T18:52:15.389Z,20.50
2023-04-29T18:54:42.894Z,20.40
2023-04-29T18:57:10.393Z,20.30
2023-04-29T18:59:41.290Z,20.30
2023-04-29T19:02:08.977Z,20.20
2023-04-29T19:04:36.710Z,20.10
2023-04-29T19:07:06.157Z,20.10
2023-04-29T19:09:33.990Z,20.00
2023-04-29T19:12:05.436Z,20.00
2023-04-29T19:14:34.456Z,19.90
2023-04-29T19:17:02.239Z,19.90
2023-04-29T19:19:30.717Z,19.80
2023-04-29T19:21:58.653Z,19.80
2023-04-29T19:24:26.652Z,19.80
2023-04-29T19:26:54.182Z,19.70
2023-04-29T19:29:22.075Z,19.70
2023-04-29T19:31:49.931Z,19.70
2023-04-29T19:34:18.813Z,19.70
2023-04-29T19:36:46.554Z,19.70
2023-04-29T19:39:15.626Z,19.60
2023-04-29T19:41:43.526Z,19.60
2023-04-29T19:44:12.056Z,19.50
2023-04-29T19:46:41.581Z,19.50
2023-04-29T19:49:09.044Z,19.40
2023-04-29T19:51:37.154Z,19.40
2023-04-29T19:54:04.917Z,19.30
2023-04-29T19:56:33.219Z,19.30
2023-04-29T19:59:01.198Z,19.30
2023-04-29T20:01:29.044Z,19.20
2023-04-29T20:03:57.232Z,19.20
2023-04-29T20:06:26.055Z,19.20
2023-04-29T20:08:54.009Z,19.20
2023-04-29T20:11:22.949Z,19.10
2023-04-29T20:13:51.061Z,19.10
2023-04-29T20:16:18.925Z,19.10
2023-04-29T20:18:48.453Z,19.10
2023-04-29T20:21:16.056Z,19.10
2023-04-29T20:23:43.549Z,19.10
2023-04-29T20:26:12.136Z,19.00
2023-04-29T20:28:40.507Z,19.00
2023-04-29T20:31:08.864Z,19.00
2023-04-29T20:33:36.559Z,19.00
2023-04-29T20:36:06.222Z,19.00
2023-04-29T20:38:35.591Z,19.00
2023-04-29T20:41:04.290Z,18.90
2023-04-29T20:43:33.029Z,18.90
2023-04-29T20:46:01.095Z,18.90
2023-04-29T20:48:28.965Z,18.90
2023-04-29T20:50:56.704Z,18.90
2023-04-29T20:53:24.621Z,18.90
2023-04-29T20:55:52.532Z,18.90
2023-04-29T20:58:21.491Z,18.90
2023-04-29T21:00:49.609Z,18.80
2023-04-29T21:03:17.723Z,18.80
2023-04-29T21:05:45.578Z,18.80
2023-04-29T21:08:13.521Z,18.80
2023-04-29T21:10:41.592Z,18.80
2023-04-29T21:13:09.260Z,18.70
2023-04-29T21:15:37.089Z,18.70
2023-04-29T21:18:06.060Z,18.70
2023-04-29T21:20:33.908Z,18.70
2023-04-29T21:23:03.161Z,18.70
2023-04-29T21:25:30.787Z,18.70
2023-04-29T21:27:58.951Z,18.60
2023-04-29T21:30:26.650Z,18.60
2023-04-29T21:32:54.399Z,18.60
2023-04-29T21:35:22.622Z,18.60
2023-04-29T21:37:50.396Z,18.60
2023-04-29T21:40:19.197Z,18.60
2023-04-29T21:42:47.453Z,18.50
2023-04-29T21:45:18.911Z,18.50
2023-04-29T21:47:48.118Z,18.40
2023-04-29T21:50:16.420Z,18.40
2023-04-29T21:52:44.334Z,18.40
2023-04-29T21:55:12.064Z,18.40
2023-04-29T21:57:44.054Z,18.40
2023-04-29T22:00:12.690Z,18.30
2023-04-29T22:02:42.250Z,18.20
2023-04-29T22:05:10.113Z,18.20
2023-04-29T22:07:37.896Z,18.20
2023-04-29T22:10:06.920Z,18.20
2023-04-29T22:12:37.745Z,18.20
2023-04-29T22:15:13.927Z,18.20
2023-04-29T22:17:36.708Z,18.20
2023-04-29T22:20:05.351Z,18.10
2023-04-29T22:22:33.096Z,18.10
2023-04-29T22:25:01.382Z,18.10
2023-04-29T22:27:30.127Z,18.00
2023-04-29T22:30:01.345Z,18.00
2023-04-29T22:32:29.763Z,18.00
2023-04-29T22:34:59.938Z,18.00
2023-04-29T22:37:27.231Z,18.00
2023-04-29T22:39:56.939Z,17.90
2023-04-29T22:42:25.132Z,18.00
2023-04-29T22:44:53.021Z,17.90
2023-04-29T22:47:20.992Z,17.90
2023-04-29T22:49:48.958Z,17.90
2023-04-29T22:52:17.126Z,17.80
2023-04-29T22:54:45.038Z,17.80
2023-04-29T22:57:12.536Z,17.80
2023-04-29T22:59:44.071Z,17.80
2023-04-29T23:02:12.178Z,17.80
2023-04-29T23:04:40.495Z,17.70
2023-04-29T23:07:08.600Z,17.70
2023-04-29T23:09:36.396Z,17.70
2023-04-29T23:12:04.564Z,17.70
2023-04-29T23:14:34.222Z,17.60
2023-04-29T23:17:01.991Z,17.70
2023-04-29T23:19:30.061Z,17.60
2023-04-29T23:21:58.087Z,17.60
2023-04-29T23:24:26.022Z,17.60
2023-04-29T23:26:54.068Z,17.60
2023-04-29T23:29:22.165Z,17.60
2023-04-29T23:31:53.200Z,17.60
2023-04-29T23:34:20.459Z,17.60
2023-04-29T23:36:48.328Z,17.60
2023-04-29T23:39:15.890Z,17.60
2023-04-29T23:41:43.803Z,17.60
2023-04-29T23:44:12.130Z,17.60
2023-04-29T23:46:40.241Z,17.60
2023-04-29T23:49:07.439Z,17.60
2023-04-29T23:51:35.410Z,17.60
2023-04-29T23:54:03.171Z,17.60
2023-04-29T23:56:33.065Z,17.60
2023-04-29T23:59:00.765Z,17.60
